TPE weather

Taiwan Taoyuan International Airport
Taipei, Taoyuan County, Taiwan

Public forecast

Using degrees Celsius for public forecast. Weather courtesy of forecast.io.

METAR (pilot weather report)

Retrieved 2019/04/24 11:30 UTC (0 seconds ago):

RCTP 241130Z 23010KT 9999 FEW016 BKN025 27/24 Q1008 NOSIG RMK A2977

TAF (pilot weather forecast)

Retrieved 2019/04/24 06:00 UTC (5 hours ago):

TAF RCTP 240500Z 2406/2512 23010KT 9999 FEW015 BKN032 TEMPO 2406/2410 23020KT TEMPO 2410/2416 16005KT FEW012 BKN020 BKN040 TEMPO 2416/2422 5000 BR SCT006 BKN011 BKN025 TEMPO 2507/2511 4000 SHRA SCT008 BKN013 BKN030